sensor_id;sensor_type;location;lat;lon;timestamp;pressure;altitude;pressure_sealevel;temperature;humidity
61345;BME280;47216;42.656;23.232;2023-05-21T00:00:55;93791.41;;;13.32;76.68
61345;BME280;47216;42.656;23.232;2023-05-21T00:03:22;93788.75;;;13.27;75.94
61345;BME280;47216;42.656;23.232;2023-05-21T00:05:52;93788.75;;;13.27;76.22
61345;BME280;47216;42.656;23.232;2023-05-21T00:08:19;93785.38;;;13.27;76.05
61345;BME280;47216;42.656;23.232;2023-05-21T00:10:46;93783.00;;;13.25;75.88
61345;BME280;47216;42.656;23.232;2023-05-21T00:13:13;93780.66;;;13.23;76.43
61345;BME280;47216;42.656;23.232;2023-05-21T00:15:40;93774.09;;;13.21;75.98
61345;BME280;47216;42.656;23.232;2023-05-21T00:18:07;93779.88;;;13.23;76.04
61345;BME280;47216;42.656;23.232;2023-05-21T00:20:34;93771.50;;;13.21;76.25
61345;BME280;47216;42.656;23.232;2023-05-21T00:23:02;93779.63;;;13.19;75.97
61345;BME280;47216;42.656;23.232;2023-05-21T00:25:29;93764.72;;;13.15;75.37
61345;BME280;47216;42.656;23.232;2023-05-21T00:27:57;93757.91;;;13.09;75.95
61345;BME280;47216;42.656;23.232;2023-05-21T00:30:23;93762.88;;;13.05;75.40
61345;BME280;47216;42.656;23.232;2023-05-21T00:32:50;93766.84;;;12.87;76.20
61345;BME280;47216;42.656;23.232;2023-05-21T00:35:17;93766.31;;;12.90;76.35
61345;BME280;47216;42.656;23.232;2023-05-21T00:37:44;93766.81;;;12.97;76.02
61345;BME280;47216;42.656;23.232;2023-05-21T00:40:13;93760.28;;;13.00;75.52
61345;BME280;47216;42.656;23.232;2023-05-21T00:42:40;93765.00;;;12.82;75.31
61345;BME280;47216;42.656;23.232;2023-05-21T00:45:10;93760.03;;;12.81;76.02
61345;BME280;47216;42.656;23.232;2023-05-21T00:47:39;93757.44;;;12.76;76.65
61345;BME280;47216;42.656;23.232;2023-05-21T00:50:09;93757.41;;;12.71;76.36
61345;BME280;47216;42.656;23.232;2023-05-21T00:52:36;93760.56;;;12.68;76.26
61345;BME280;47216;42.656;23.232;2023-05-21T00:55:07;93752.97;;;12.71;75.87
61345;BME280;47216;42.656;23.232;2023-05-21T00:57:35;93752.19;;;12.66;76.25
61345;BME280;47216;42.656;23.232;2023-05-21T01:00:04;93748.00;;;12.65;76.28
61345;BME280;47216;42.656;23.232;2023-05-21T01:02:34;93740.94;;;12.60;75.96
61345;BME280;47216;42.656;23.232;2023-05-21T01:05:01;93752.72;;;12.57;76.05
61345;BME280;47216;42.656;23.232;2023-05-21T01:07:30;93749.56;;;12.60;76.03
61345;BME280;47216;42.656;23.232;2023-05-21T01:09:59;93741.22;;;12.43;76.16
61345;BME280;47216;42.656;23.232;2023-05-21T01:12:28;93754.28;;;12.48;76.11
61345;BME280;47216;42.656;23.232;2023-05-21T01:14:58;93741.75;;;12.50;76.27
61345;BME280;47216;42.656;23.232;2023-05-21T01:17:26;93744.31;;;12.45;76.23
61345;BME280;47216;42.656;23.232;2023-05-21T01:19:55;93737.53;;;12.44;76.47
61345;BME280;47216;42.656;23.232;2023-05-21T01:22:24;93730.22;;;12.46;76.79
61345;BME280;47216;42.656;23.232;2023-05-21T01:24:54;93739.63;;;12.42;75.97
61345;BME280;47216;42.656;23.232;2023-05-21T01:27:21;93732.56;;;12.43;76.05
61345;BME280;47216;42.656;23.232;2023-05-21T01:29:47;93739.63;;;12.37;75.89
61345;BME280;47216;42.656;23.232;2023-05-21T01:32:19;93735.97;;;12.33;76.15
61345;BME280;47216;42.656;23.232;2023-05-21T01:34:49;93733.88;;;12.35;76.22
61345;BME280;47216;42.656;23.232;2023-05-21T01:37:22;93729.19;;;12.37;76.00
61345;BME280;47216;42.656;23.232;2023-05-21T01:39:56;93732.56;;;12.32;76.09
61345;BME280;47216;42.656;23.232;2023-05-21T01:42:24;93727.88;;;12.34;76.10
61345;BME280;47216;42.656;23.232;2023-05-21T01:44:54;93734.41;;;12.32;75.91
61345;BME280;47216;42.656;23.232;2023-05-21T01:47:23;93732.31;;;12.34;76.15
61345;BME280;47216;42.656;23.232;2023-05-21T01:49:52;93728.91;;;12.33;75.98
61345;BME280;47216;42.656;23.232;2023-05-21T01:52:19;93724.72;;;12.32;76.03
61345;BME280;47216;42.656;23.232;2023-05-21T01:54:45;93728.91;;;12.33;75.81
61345;BME280;47216;42.656;23.232;2023-05-21T01:57:15;93732.81;;;12.36;76.11
61345;BME280;47216;42.656;23.232;2023-05-21T01:59:42;93718.19;;;12.35;75.82
61345;BME280;47216;42.656;23.232;2023-05-21T02:02:09;93718.72;;;12.32;75.56
61345;BME280;47216;42.656;23.232;2023-05-21T02:04:36;93720.28;;;12.28;75.53
61345;BME280;47216;42.656;23.232;2023-05-21T02:07:05;93715.81;;;12.33;75.73
61345;BME280;47216;42.656;23.232;2023-05-21T02:09:32;93716.09;;;12.32;75.68
61345;BME280;47216;42.656;23.232;2023-05-21T02:11:59;93712.44;;;12.28;75.53
61345;BME280;47216;42.656;23.232;2023-05-21T02:14:27;93712.69;;;12.21;75.25
61345;BME280;47216;42.656;23.232;2023-05-21T02:16:54;93705.63;;;12.22;75.23
61345;BME280;47216;42.656;23.232;2023-05-21T02:19:22;93707.19;;;12.17;75.20
61345;BME280;47216;42.656;23.232;2023-05-21T02:21:49;93712.69;;;12.16;75.25
61345;BME280;47216;42.656;23.232;2023-05-21T02:24:15;93710.84;;;12.16;75.05
61345;BME280;47216;42.656;23.232;2023-05-21T02:26:42;93707.72;;;12.14;75.25
61345;BME280;47216;42.656;23.232;2023-05-21T02:29:09;93699.34;;;12.12;74.92
61345;BME280;47216;42.656;23.232;2023-05-21T02:31:37;93716.84;;;12.07;75.06
61345;BME280;47216;42.656;23.232;2023-05-21T02:34:04;93701.44;;;12.00;75.25
61345;BME280;47216;42.656;23.232;2023-05-21T02:36:32;93715.03;;;11.97;75.36
61345;BME280;47216;42.656;23.232;2023-05-21T02:39:00;93705.56;;;11.86;75.32
61345;BME280;47216;42.656;23.232;2023-05-21T02:41:27;93712.59;;;11.80;75.90
61345;BME280;47216;42.656;23.232;2023-05-21T02:43:54;93702.91;;;11.81;76.19
61345;BME280;47216;42.656;23.232;2023-05-21T02:46:21;93702.38;;;11.73;76.23
61345;BME280;47216;42.656;23.232;2023-05-21T02:48:49;93701.84;;;11.71;77.01
61345;BME280;47216;42.656;23.232;2023-05-21T02:51:16;93699.50;;;11.75;76.87
61345;BME280;47216;42.656;23.232;2023-05-21T02:53:42;93710.75;;;11.75;76.96
61345;BME280;47216;42.656;23.232;2023-05-21T02:56:09;93700.59;;;11.79;76.66
61345;BME280;47216;42.656;23.232;2023-05-21T02:58:36;93706.06;;;11.77;76.65
61345;BME280;47216;42.656;23.232;2023-05-21T03:01:03;93698.75;;;11.74;76.26
61345;BME280;47216;42.656;23.232;2023-05-21T03:03:30;93704.97;;;11.68;76.42
61345;BME280;47216;42.656;23.232;2023-05-21T03:05:58;93699.50;;;11.70;76.19
61345;BME280;47216;42.656;23.232;2023-05-21T03:08:25;93698.72;;;11.69;76.12
61345;BME280;47216;42.656;23.232;2023-05-21T03:10:52;93715.94;;;11.65;76.58
61345;BME280;47216;42.656;23.232;2023-05-21T03:13:19;93713.81;;;11.57;76.07
61345;BME280;47216;42.656;23.232;2023-05-21T03:15:46;93710.97;;;11.59;76.24
61345;BME280;47216;42.656;23.232;2023-05-21T03:18:13;93714.34;;;11.59;76.36
61345;BME280;47216;42.656;23.232;2023-05-21T03:20:40;93718.56;;;11.60;76.46
61345;BME280;47216;42.656;23.232;2023-05-21T03:23:11;93719.34;;;11.61;76.33
61345;BME280;47216;42.656;23.232;2023-05-21T03:25:38;93720.13;;;11.61;76.93
61345;BME280;47216;42.656;23.232;2023-05-21T03:28:05;93718.81;;;11.64;77.02
61345;BME280;47216;42.656;23.232;2023-05-21T03:30:34;93726.13;;;11.67;77.12
61345;BME280;47216;42.656;23.232;2023-05-21T03:33:01;93716.19;;;11.59;77.78
61345;BME280;47216;42.656;23.232;2023-05-21T03:35:27;93726.41;;;11.65;77.59
61345;BME280;47216;42.656;23.232;2023-05-21T03:37:54;93727.97;;;11.66;77.75
61345;BME280;47216;42.656;23.232;2023-05-21T03:40:22;93727.94;;;11.61;78.16
61345;BME280;47216;42.656;23.232;2023-05-21T03:42:49;93724.84;;;11.74;78.18
61345;BME280;47216;42.656;23.232;2023-05-21T03:45:16;93723.31;;;11.84;78.10
61345;BME280;47216;42.656;23.232;2023-05-21T03:47:43;93723.31;;;11.84;78.36
61345;BME280;47216;42.656;23.232;2023-05-21T03:50:10;93729.56;;;11.83;78.20
61345;BME280;47216;42.656;23.232;2023-05-21T03:52:36;93726.47;;;11.86;78.28
61345;BME280;47216;42.656;23.232;2023-05-21T03:55:04;93721.53;;;11.89;78.62
61345;BME280;47216;42.656;23.232;2023-05-21T03:57:32;93725.44;;;11.92;78.77
61345;BME280;47216;42.656;23.232;2023-05-21T03:59:59;93712.41;;;12.07;78.13
61345;BME280;47216;42.656;23.232;2023-05-21T04:02:26;93716.06;;;12.27;78.24
61345;BME280;47216;42.656;23.232;2023-05-21T04:04:53;93711.38;;;12.29;77.67
61345;BME280;47216;42.656;23.232;2023-05-21T04:07:20;93715.56;;;12.35;78.32
61345;BME280;47216;42.656;23.232;2023-05-21T04:09:47;93705.13;;;12.35;77.91
61345;BME280;47216;42.656;23.232;2023-05-21T04:12:13;93714.00;;;12.59;78.02
61345;BME280;47216;42.656;23.232;2023-05-21T04:14:43;93713.47;;;12.83;76.91
61345;BME280;47216;42.656;23.232;2023-05-21T04:17:10;93707.09;;;13.10;76.10
61345;BME280;47216;42.656;23.232;2023-05-21T04:19:37;93711.00;;;13.22;75.31
61345;BME280;47216;42.656;23.232;2023-05-21T04:22:04;93719.63;;;13.38;74.91
61345;BME280;47216;42.656;23.232;2023-05-21T04:24:31;93712.75;;;13.53;74.39
61345;BME280;47216;42.656;23.232;2023-05-21T04:26:57;93708.75;;;13.65;74.00
61345;BME280;47216;42.656;23.232;2023-05-21T04:29:25;93695.91;;;13.69;74.01
61345;BME280;47216;42.656;23.232;2023-05-21T04:31:55;93709.03;;;13.69;73.76
61345;BME280;47216;42.656;23.232;2023-05-21T04:34:22;93702.81;;;13.55;74.71
61345;BME280;47216;42.656;23.232;2023-05-21T04:36:49;93714.13;;;13.40;75.04
61345;BME280;47216;42.656;23.232;2023-05-21T04:39:16;93701.31;;;13.28;75.79
61345;BME280;47216;42.656;23.232;2023-05-21T04:41:43;93704.75;;;13.29;75.74
61345;BME280;47216;42.656;23.232;2023-05-21T04:44:10;93704.97;;;13.32;76.04
61345;BME280;47216;42.656;23.232;2023-05-21T04:46:39;93708.13;;;13.34;76.48
61345;BME280;47216;42.656;23.232;2023-05-21T04:49:08;93711.00;;;13.33;76.36
61345;BME280;47216;42.656;23.232;2023-05-21T04:51:36;93710.75;;;13.29;76.93
61345;BME280;47216;42.656;23.232;2023-05-21T04:54:03;93708.66;;;13.31;76.75
61345;BME280;47216;42.656;23.232;2023-05-21T04:56:29;93703.13;;;13.33;77.09
61345;BME280;47216;42.656;23.232;2023-05-21T04:58:56;93700.28;;;13.29;77.72
61345;BME280;47216;42.656;23.232;2023-05-21T05:01:24;93698.69;;;13.28;77.70
61345;BME280;47216;42.656;23.232;2023-05-21T05:03:53;93695.56;;;13.31;78.53
61345;BME280;47216;42.656;23.232;2023-05-21T05:06:21;93690.84;;;13.33;78.07
61345;BME280;47216;42.656;23.232;2023-05-21T05:08:50;93694.75;;;13.36;78.35
61345;BME280;47216;42.656;23.232;2023-05-21T05:11:17;93698.91;;;13.42;78.74
61345;BME280;47216;42.656;23.232;2023-05-21T05:13:43;93703.13;;;13.43;78.92
61345;BME280;47216;42.656;23.232;2023-05-21T05:16:10;93693.34;;;13.54;79.72
61345;BME280;47216;42.656;23.232;2023-05-21T05:18:39;93701.22;;;13.54;79.58
61345;BME280;47216;42.656;23.232;2023-05-21T05:21:05;93694.91;;;13.60;80.13
61345;BME280;47216;42.656;23.232;2023-05-21T05:23:33;93699.13;;;13.61;79.83
61345;BME280;47216;42.656;23.232;2023-05-21T05:26:00;93702.75;;;13.65;80.24
61345;BME280;47216;42.656;23.232;2023-05-21T05:28:27;93693.56;;;13.73;80.50
61345;BME280;47216;42.656;23.232;2023-05-21T05:30:54;93696.91;;;13.78;80.63
61345;BME280;47216;42.656;23.232;2023-05-21T05:33:20;93692.94;;;13.86;80.60
61345;BME280;47216;42.656;23.232;2023-05-21T05:35:47;93698.97;;;13.86;80.45
61345;BME280;47216;42.656;23.232;2023-05-21T05:38:14;93688.47;;;13.92;80.75
61345;BME280;47216;42.656;23.232;2023-05-21T05:40:42;93688.84;;;14.14;84.10
61345;BME280;47216;42.656;23.232;2023-05-21T05:43:09;93689.47;;;14.69;84.91
61345;BME280;47216;42.656;23.232;2023-05-21T05:45:36;93685.81;;;14.95;82.02
61345;BME280;47216;42.656;23.232;2023-05-21T05:48:03;93685.44;;;15.06;80.90
61345;BME280;47216;42.656;23.232;2023-05-21T05:50:30;93688.53;;;15.13;80.01
61345;BME280;47216;42.656;23.232;2023-05-21T05:52:57;93685.03;;;15.42;79.53
61345;BME280;47216;42.656;23.232;2023-05-21T05:55:23;93682.84;;;15.49;76.12
61345;BME280;47216;42.656;23.232;2023-05-21T05:57:52;93681.44;;;15.57;74.52
61345;BME280;47216;42.656;23.232;2023-05-21T06:00:19;93672.72;;;15.62;72.63
61345;BME280;47216;42.656;23.232;2023-05-21T06:02:46;93674.97;;;15.73;71.54
61345;BME280;47216;42.656;23.232;2023-05-21T06:05:13;93672.19;;;15.84;70.13
61345;BME280;47216;42.656;23.232;2023-05-21T06:07:41;93681.88;;;15.88;70.19
61345;BME280;47216;42.656;23.232;2023-05-21T06:10:08;93673.69;;;15.90;70.05
61345;BME280;47216;42.656;23.232;2023-05-21T06:12:35;93672.09;;;16.08;68.19
61345;BME280;47216;42.656;23.232;2023-05-21T06:15:04;93674.19;;;16.11;68.90
61345;BME280;47216;42.656;23.232;2023-05-21T06:17:31;93671.91;;;16.23;68.57
61345;BME280;47216;42.656;23.232;2023-05-21T06:19:58;93651.66;;;16.37;68.52
61345;BME280;47216;42.656;23.232;2023-05-21T06:22:25;93657.78;;;16.33;68.51
61345;BME280;47216;42.656;23.232;2023-05-21T06:24:51;93661.88;;;16.58;67.42
61345;BME280;47216;42.656;23.232;2023-05-21T06:27:18;93666.97;;;16.68;66.38
61345;BME280;47216;42.656;23.232;2023-05-21T06:29:45;93668.47;;;16.88;67.16
61345;BME280;47216;42.656;23.232;2023-05-21T06:32:13;93663.34;;;16.97;66.62
61345;BME280;47216;42.656;23.232;2023-05-21T06:34:40;93656.50;;;17.10;65.39
61345;BME280;47216;42.656;23.232;2023-05-21T06:37:07;93646.38;;;17.17;65.73
61345;BME280;47216;42.656;23.232;2023-05-21T06:39:34;93648.19;;;17.16;63.99
61345;BME280;47216;42.656;23.232;2023-05-21T06:42:01;93663.63;;;17.37;64.08
61345;BME280;47216;42.656;23.232;2023-05-21T06:44:28;93657.19;;;17.43;62.88
61345;BME280;47216;42.656;23.232;2023-05-21T06:46:54;93653.94;;;17.46;60.66
61345;BME280;47216;42.656;23.232;2023-05-21T06:49:23;93644.00;;;17.43;59.26
61345;BME280;47216;42.656;23.232;2023-05-21T06:51:50;93649.44;;;17.47;58.35
61345;BME280;47216;42.656;23.232;2023-05-21T06:54:17;93647.50;;;17.66;58.34
61345;BME280;47216;42.656;23.232;2023-05-21T06:56:44;93643.34;;;17.74;59.37
61345;BME280;47216;42.656;23.232;2023-05-21T06:59:11;93641.59;;;17.83;59.29
61345;BME280;47216;42.656;23.232;2023-05-21T07:01:42;93637.66;;;17.94;58.20
61345;BME280;47216;42.656;23.232;2023-05-21T07:04:09;93650.03;;;18.08;59.09
61345;BME280;47216;42.656;23.232;2023-05-21T07:06:38;93636.06;;;18.07;59.60
61345;BME280;47216;42.656;23.232;2023-05-21T07:09:05;93641.72;;;18.14;59.47
61345;BME280;47216;42.656;23.232;2023-05-21T07:11:32;93627.00;;;18.22;59.44
61345;BME280;47216;42.656;23.232;2023-05-21T07:14:00;93639.25;;;18.40;59.25
61345;BME280;47216;42.656;23.232;2023-05-21T07:16:28;93639.25;;;18.40;58.84
61345;BME280;47216;42.656;23.232;2023-05-21T07:18:55;93645.00;;;18.65;58.45
61345;BME280;47216;42.656;23.232;2023-05-21T07:21:22;93639.81;;;18.60;56.53
61345;BME280;47216;42.656;23.232;2023-05-21T07:23:50;93645.56;;;18.53;57.21
61345;BME280;47216;42.656;23.232;2023-05-21T07:26:18;93651.47;;;18.59;56.15
61345;BME280;47216;42.656;23.232;2023-05-21T07:28:47;93647.44;;;18.61;56.60
61345;BME280;47216;42.656;23.232;2023-05-21T07:31:14;93646.41;;;18.71;56.34
61345;BME280;47216;42.656;23.232;2023-05-21T07:33:40;93648.50;;;18.83;56.96
61345;BME280;47216;42.656;23.232;2023-05-21T07:36:08;93653.50;;;18.84;56.14
61345;BME280;47216;42.656;23.232;2023-05-21T07:38:34;93650.28;;;18.96;57.09
61345;BME280;47216;42.656;23.232;2023-05-21T07:41:03;93640.50;;;18.97;56.49
61345;BME280;47216;42.656;23.232;2023-05-21T07:43:30;93650.63;;;19.03;55.33
61345;BME280;47216;42.656;23.232;2023-05-21T07:45:57;93655.28;;;18.98;53.64
61345;BME280;47216;42.656;23.232;2023-05-21T07:48:24;93639.56;;;18.93;53.89
61345;BME280;47216;42.656;23.232;2023-05-21T07:50:51;93649.41;;;19.09;53.41
61345;BME280;47216;42.656;23.232;2023-05-21T07:53:18;93634.34;;;19.10;52.54
61345;BME280;47216;42.656;23.232;2023-05-21T07:55:45;93644.97;;;19.27;52.67
61345;BME280;47216;42.656;23.232;2023-05-21T07:58:15;93637.38;;;19.35;52.49
61345;BME280;47216;42.656;23.232;2023-05-21T08:00:43;93643.25;;;19.23;52.31
61345;BME280;47216;42.656;23.232;2023-05-21T08:03:12;93648.38;;;19.19;52.77
61345;BME280;47216;42.656;23.232;2023-05-21T08:05:40;93640.91;;;19.21;52.90
61345;BME280;47216;42.656;23.232;2023-05-21T08:08:09;93637.97;;;19.23;51.50
61345;BME280;47216;42.656;23.232;2023-05-21T08:10:36;93630.38;;;19.30;51.27
61345;BME280;47216;42.656;23.232;2023-05-21T08:13:03;93646.59;;;19.46;51.08
61345;BME280;47216;42.656;23.232;2023-05-21T08:15:31;93652.84;;;19.67;52.06
61345;BME280;47216;42.656;23.232;2023-05-21T08:17:58;93648.88;;;19.87;51.15
61345;BME280;47216;42.656;23.232;2023-05-21T08:20:24;93651.50;;;19.87;50.57
61345;BME280;47216;42.656;23.232;2023-05-21T08:22:51;93647.00;;;19.88;49.98
61345;BME280;47216;42.656;23.232;2023-05-21T08:25:19;93642.97;;;19.99;49.27
61345;BME280;47216;42.656;23.232;2023-05-21T08:27:46;93645.75;;;20.11;49.65
61345;BME280;47216;42.656;23.232;2023-05-21T08:30:12;93628.00;;;20.21;48.38
61345;BME280;47216;42.656;23.232;2023-05-21T08:32:41;93638.41;;;20.26;46.91
61345;BME280;47216;42.656;23.232;2023-05-21T08:35:08;93655.09;;;20.00;45.68
61345;BME280;47216;42.656;23.232;2023-05-21T08:37:35;93650.44;;;19.97;46.90
61345;BME280;47216;42.656;23.232;2023-05-21T08:40:02;93648.06;;;19.96;47.01
61345;BME280;47216;42.656;23.232;2023-05-21T08:42:38;93643.72;;;20.00;46.35
61345;BME280;47216;42.656;23.232;2023-05-21T08:45:07;93650.09;;;19.99;45.35
61345;BME280;47216;42.656;23.232;2023-05-21T08:47:35;93652.13;;;19.76;44.52
61345;BME280;47216;42.656;23.232;2023-05-21T08:50:08;93655.84;;;19.83;44.50
61345;BME280;47216;42.656;23.232;2023-05-21T08:52:35;93649.31;;;19.72;44.74
61345;BME280;47216;42.656;23.232;2023-05-21T08:55:03;93645.09;;;19.80;45.11
61345;BME280;47216;42.656;23.232;2023-05-21T08:57:30;93658.06;;;19.90;45.39
61345;BME280;47216;42.656;23.232;2023-05-21T08:59:57;93644.19;;;19.93;46.48
61345;BME280;47216;42.656;23.232;2023-05-21T09:02:24;93651.38;;;20.01;45.54
61345;BME280;47216;42.656;23.232;2023-05-21T09:04:52;93660.69;;;20.16;45.39
61345;BME280;47216;42.656;23.232;2023-05-21T09:07:24;93657.88;;;20.12;45.51
61345;BME280;47216;42.656;23.232;2023-05-21T09:09:55;93660.38;;;20.26;45.63
61345;BME280;47216;42.656;23.232;2023-05-21T09:12:23;93653.06;;;20.23;45.70
61345;BME280;47216;42.656;23.232;2023-05-21T09:14:51;93655.41;;;20.25;45.13
61345;BME280;47216;42.656;23.232;2023-05-21T09:17:18;93658.81;;;20.17;45.80
61345;BME280;47216;42.656;23.232;2023-05-21T09:20:09;93660.88;;;20.20;46.08
61345;BME280;47216;42.656;23.232;2023-05-21T09:22:39;93658.53;;;20.09;46.63
61345;BME280;47216;42.656;23.232;2023-05-21T09:25:07;93669.91;;;20.01;48.55
61345;BME280;47216;42.656;23.232;2023-05-21T09:27:34;93667.09;;;20.06;48.30
61345;BME280;47216;42.656;23.232;2023-05-21T09:30:02;93663.03;;;20.00;47.86
61345;BME280;47216;42.656;23.232;2023-05-21T09:32:29;93655.72;;;20.14;47.69
61345;BME280;47216;42.656;23.232;2023-05-21T09:34:55;93652.13;;;20.19;47.21
61345;BME280;47216;42.656;23.232;2023-05-21T09:37:23;93653.66;;;20.38;48.44
61345;BME280;47216;42.656;23.232;2023-05-21T09:39:51;93646.97;;;20.58;47.30
61345;BME280;47216;42.656;23.232;2023-05-21T09:42:19;93657.25;;;20.68;45.24
61345;BME280;47216;42.656;23.232;2023-05-21T09:44:47;93656.91;;;20.78;43.08
61345;BME280;47216;42.656;23.232;2023-05-21T09:47:18;93651.75;;;20.82;41.93
61345;BME280;47216;42.656;23.232;2023-05-21T09:49:45;93650.78;;;20.95;41.20
61345;BME280;47216;42.656;23.232;2023-05-21T09:52:12;93638.00;;;20.97;41.39
61345;BME280;47216;42.656;23.232;2023-05-21T09:54:39;93648.09;;;21.12;42.08
61345;BME280;47216;42.656;23.232;2023-05-21T09:57:07;93642.09;;;21.24;40.50
61345;BME280;47216;42.656;23.232;2023-05-21T09:59:35;93634.34;;;21.19;39.17
61345;BME280;47216;42.656;23.232;2023-05-21T10:02:02;93648.38;;;21.11;39.67
61345;BME280;47216;42.656;23.232;2023-05-21T10:04:29;93643.16;;;21.32;41.25
61345;BME280;47216;42.656;23.232;2023-05-21T10:06:57;93647.41;;;21.24;39.40
61345;BME280;47216;42.656;23.232;2023-05-21T10:09:26;93635.22;;;21.23;40.77
61345;BME280;47216;42.656;23.232;2023-05-21T10:11:55;93641.88;;;21.38;40.54
61345;BME280;47216;42.656;23.232;2023-05-21T10:14:24;93651.72;;;21.37;39.70
61345;BME280;47216;42.656;23.232;2023-05-21T10:16:53;93648.91;;;21.43;39.00
61345;BME280;47216;42.656;23.232;2023-05-21T10:19:21;93631.84;;;21.52;39.26
61345;BME280;47216;42.656;23.232;2023-05-21T10:21:50;93637.28;;;21.56;39.50
61345;BME280;47216;42.656;23.232;2023-05-21T10:24:17;93636.00;;;21.62;40.99
61345;BME280;47216;42.656;23.232;2023-05-21T10:26:45;93632.25;;;21.63;40.26
61345;BME280;47216;42.656;23.232;2023-05-21T10:29:13;93642.06;;;21.63;38.36
61345;BME280;47216;42.656;23.232;2023-05-21T10:31:43;93635.72;;;21.55;38.90
61345;BME280;47216;42.656;23.232;2023-05-21T10:34:14;93620.19;;;21.45;39.25
61345;BME280;47216;42.656;23.232;2023-05-21T10:36:42;93619.81;;;21.55;39.70
61345;BME280;47216;42.656;23.232;2023-05-21T10:39:11;93627.69;;;21.43;39.68
61345;BME280;47216;42.656;23.232;2023-05-21T10:41:45;93636.13;;;21.36;39.33
61345;BME280;47216;42.656;23.232;2023-05-21T10:44:21;93624.72;;;21.35;40.10
61345;BME280;47216;42.656;23.232;2023-05-21T10:47:17;93629.13;;;21.31;40.52
61345;BME280;47216;42.656;23.232;2023-05-21T10:49:56;93628.06;;;21.24;40.18
61345;BME280;47216;42.656;23.232;2023-05-21T10:52:38;93636.56;;;21.38;41.01
61345;BME280;47216;42.656;23.232;2023-05-21T10:55:16;93626.59;;;21.35;40.48
61345;BME280;47216;42.656;23.232;2023-05-21T11:01:09;93627.59;;;21.22;40.15
61345;BME280;47216;42.656;23.232;2023-05-21T11:03:38;93628.81;;;21.33;40.33
61345;BME280;47216;42.656;23.232;2023-05-21T11:06:05;93631.16;;;21.26;40.08
61345;BME280;47216;42.656;23.232;2023-05-21T11:08:33;93633.41;;;21.15;39.26
61345;BME280;47216;42.656;23.232;2023-05-21T11:11:01;93620.88;;;21.24;40.94
61345;BME280;47216;42.656;23.232;2023-05-21T11:13:44;93624.16;;;21.21;41.70
61345;BME280;47216;42.656;23.232;2023-05-21T11:16:13;93621.97;;;21.23;41.57
61345;BME280;47216;42.656;23.232;2023-05-21T11:19:00;93617.16;;;20.87;41.94
61345;BME280;47216;42.656;23.232;2023-05-21T11:21:29;93620.88;;;20.86;42.18
61345;BME280;47216;42.656;23.232;2023-05-21T11:23:59;93624.75;;;20.88;42.59
61345;BME280;47216;42.656;23.232;2023-05-21T11:26:57;93621.16;;;20.93;42.52
61345;BME280;47216;42.656;23.232;2023-05-21T11:29:16;93615.56;;;20.86;42.98
61345;BME280;47216;42.656;23.232;2023-05-21T11:31:45;93613.25;;;20.84;43.12
61345;BME280;47216;42.656;23.232;2023-05-21T11:34:14;93612.91;;;20.94;42.84
61345;BME280;47216;42.656;23.232;2023-05-21T11:36:44;93612.16;;;20.85;43.03
61345;BME280;47216;42.656;23.232;2023-05-21T11:39:13;93605.59;;;20.91;43.28
61345;BME280;47216;42.656;23.232;2023-05-21T11:41:52;93604.94;;;20.94;42.79
61345;BME280;47216;42.656;23.232;2023-05-21T11:44:36;93608.34;;;21.04;43.77
61345;BME280;47216;42.656;23.232;2023-05-21T11:47:04;93607.56;;;21.03;43.70
61345;BME280;47216;42.656;23.232;2023-05-21T11:49:33;93598.81;;;21.03;43.03
61345;BME280;47216;42.656;23.232;2023-05-21T11:52:01;93595.72;;;21.01;43.21
61345;BME280;47216;42.656;23.232;2023-05-21T11:54:29;93593.50;;;21.03;43.89
61345;BME280;47216;42.656;23.232;2023-05-21T11:56:58;93601.19;;;20.95;44.51
61345;BME280;47216;42.656;23.232;2023-05-21T11:59:26;93598.41;;;20.92;46.35
61345;BME280;47216;42.656;23.232;2023-05-21T12:01:53;93588.44;;;20.89;45.14
61345;BME280;47216;42.656;23.232;2023-05-21T12:04:20;93595.59;;;20.88;45.90
61345;BME280;47216;42.656;23.232;2023-05-21T12:06:49;93585.38;;;20.78;46.87
61345;BME280;47216;42.656;23.232;2023-05-21T12:09:16;93591.47;;;20.70;49.89
61345;BME280;47216;42.656;23.232;2023-05-21T12:11:43;93591.94;;;20.63;50.22
61345;BME280;47216;42.656;23.232;2023-05-21T12:14:09;93585.56;;;20.55;49.21
61345;BME280;47216;42.656;23.232;2023-05-21T12:16:37;93590.56;;;20.48;48.84
61345;BME280;47216;42.656;23.232;2023-05-21T12:19:05;93571.91;;;20.36;51.00
61345;BME280;47216;42.656;23.232;2023-05-21T12:21:32;93592.16;;;20.32;50.12
61345;BME280;47216;42.656;23.232;2023-05-21T12:24:01;93585.00;;;20.24;51.50
61345;BME280;47216;42.656;23.232;2023-05-21T12:26:28;93584.69;;;20.17;51.79
61345;BME280;47216;42.656;23.232;2023-05-21T12:28:57;93587.97;;;20.05;52.20
61345;BME280;47216;42.656;23.232;2023-05-21T12:31:24;93587.69;;;19.98;53.92
61345;BME280;47216;42.656;23.232;2023-05-21T12:33:52;93585.66;;;19.86;54.01
61345;BME280;47216;42.656;23.232;2023-05-21T12:36:22;93584.56;;;19.78;54.06
61345;BME280;47216;42.656;23.232;2023-05-21T12:38:51;93578.34;;;19.74;52.79
61345;BME280;47216;42.656;23.232;2023-05-21T12:41:20;93587.06;;;19.75;53.35
61345;BME280;47216;42.656;23.232;2023-05-21T12:43:47;93580.22;;;19.73;53.08
61345;BME280;47216;42.656;23.232;2023-05-21T12:46:15;93574.47;;;19.71;52.19
61345;BME280;47216;42.656;23.232;2023-05-21T12:48:52;93579.75;;;19.71;50.83
61345;BME280;47216;42.656;23.232;2023-05-21T12:51:20;93570.72;;;19.72;50.82
61345;BME280;47216;42.656;23.232;2023-05-21T12:53:47;93577.56;;;19.73;51.43
61345;BME280;47216;42.656;23.232;2023-05-21T12:56:14;93559.97;;;19.69;52.48
61345;BME280;47216;42.656;23.232;2023-05-21T12:58:48;93572.13;;;19.79;53.50